Time;durP1;ratioP1;P1;durP2;ratioP2;P2;SDS_P1;SDS_P2;PMS_P1;PMS_P2;Temp;Humidity;BMP_temperature;BMP_pressure;BME280_temperature;BME280_humidity;BME280_pressure;Samples;Min_cycle;Max_cycle;Signal;HPM_P1;HPM_P2
2022/10/28 00:01:55;;;;;;;35.47;13.43;;;;;;;14.88;100.00;101618.78;5045244;28;20029;-42
2022/10/28 00:04:21;;;;;;;31.17;12.27;;;;;;;14.84;100.00;101612.88;5050474;28;20121;-42
2022/10/28 00:06:46;;;;;;;29.27;11.80;;;;;;;14.81;100.00;101615.13;5050383;28;20479;-40
2022/10/28 00:09:11;;;;;;;24.40;11.82;;;;;;;14.80;100.00;101608.06;5050584;28;20028;-41
2022/10/28 00:11:37;;;;;;;26.88;11.88;;;;;;;14.79;100.00;101611.78;5035080;28;20094;-42
2022/10/28 00:14:04;;;;;;;26.23;11.90;;;;;;;14.74;100.00;101611.50;5047996;28;20032;-41
2022/10/28 00:16:32;;;;;;;36.33;12.50;;;;;;;14.70;100.00;101616.47;5051929;28;20532;-43
2022/10/28 00:18:58;;;;;;;28.80;11.35;;;;;;;14.69;100.00;101612.06;5050069;28;20033;-41
2022/10/28 00:21:26;;;;;;;33.28;12.18;;;;;;;14.76;100.00;101617.59;5039755;28;20037;-41
2022/10/28 00:23:52;;;;;;;33.63;12.55;;;;;;;14.74;100.00;101609.63;5045855;28;20400;-42
2022/10/28 00:26:19;;;;;;;29.70;11.57;;;;;;;14.69;100.00;101625.63;5051539;28;20025;-42
2022/10/28 00:28:50;;;;;;;27.00;11.35;;;;;;;14.68;100.00;101621.25;5040180;28;20025;-42
2022/10/28 00:31:17;;;;;;;28.60;11.45;;;;;;;14.65;100.00;101624.34;5031983;28;20037;-42
2022/10/28 00:33:43;;;;;;;26.83;12.50;;;;;;;14.56;100.00;101626.31;5031479;28;20218;-42
2022/10/28 00:36:10;;;;;;;29.85;12.05;;;;;;;14.49;100.00;101623.47;5045935;28;20090;-41
2022/10/28 00:38:35;;;;;;;28.17;12.00;;;;;;;14.43;100.00;101623.41;5051839;28;20482;-42
2022/10/28 00:41:01;;;;;;;32.53;13.18;;;;;;;14.36;100.00;101619.75;5051016;28;20033;-42
2022/10/28 00:43:54;;;;;;;35.58;13.32;;;;;;;14.28;100.00;101613.41;5050859;28;20037;-43
2022/10/28 00:46:36;;;;;;;26.42;11.75;;;;;;;14.25;100.00;101616.50;5039164;28;20436;-42
2022/10/28 00:49:15;;;;;;;37.28;12.95;;;;;;;14.23;100.00;101613.13;5040686;28;20040;-41
2022/10/28 00:51:41;;;;;;;34.05;13.27;;;;;;;14.21;100.00;101609.75;5050887;28;20103;-42
2022/10/28 00:54:06;;;;;;;29.35;12.60;;;;;;;14.19;100.00;101609.13;5037953;28;20051;-41
2022/10/28 00:56:37;;;;;;;35.42;11.95;;;;;;;14.16;100.00;101612.19;5046558;28;20029;-44
2022/10/28 00:59:07;;;;;;;32.47;12.88;;;;;;;14.16;100.00;101614.91;5029893;28;20365;-41
2022/10/28 01:01:32;;;;;;;37.08;13.05;;;;;;;14.20;100.00;101610.81;5031088;28;20112;-42
2022/10/28 01:03:58;;;;;;;33.67;12.75;;;;;;;14.14;100.00;101606.16;5033356;28;20608;-42
2022/10/28 01:06:24;;;;;;;36.78;12.10;;;;;;;14.12;100.00;101605.50;5030767;28;20033;-41
2022/10/28 01:08:49;;;;;;;28.08;12.45;;;;;;;14.11;100.00;101592.97;5036122;28;20384;-42
2022/10/28 01:11:39;;;;;;;28.25;13.30;;;;;;;14.11;100.00;101594.84;5050342;28;20033;-41
2022/10/28 01:14:14;;;;;;;34.80;13.07;;;;;;;14.02;100.00;101592.22;5048755;28;20029;-42
2022/10/28 01:16:45;;;;;;;33.47;13.70;;;;;;;13.98;100.00;101592.78;5042765;28;20053;-40
2022/10/28 01:19:16;;;;;;;27.83;12.70;;;;;;;13.95;100.00;101588.56;5030858;28;20093;-40
2022/10/28 01:22:11;;;;;;;32.78;13.80;;;;;;;13.92;100.00;101588.13;5040948;28;20090;-41
2022/10/28 01:24:52;;;;;;;37.38;15.05;;;;;;;13.89;100.00;101594.72;5049032;28;20044;-41
2022/10/28 01:27:33;;;;;;;34.53;13.68;;;;;;;13.87;100.00;101590.53;5030222;28;20471;-41
2022/10/28 01:30:06;;;;;;;29.33;13.70;;;;;;;13.81;100.00;101598.38;5031707;28;20420;-42
2022/10/28 01:32:36;;;;;;;33.10;14.57;;;;;;;13.74;100.00;101591.16;5029420;28;20396;-41
2022/10/28 01:35:04;;;;;;;35.42;13.77;;;;;;;13.71;100.00;101586.97;5030339;28;20036;-41
2022/10/28 01:37:37;;;;;;;27.17;13.63;;;;;;;13.70;100.00;101585.28;5030412;28;20076;-42
2022/10/28 01:40:08;;;;;;;33.63;13.73;;;;;;;13.68;100.00;101581.94;5045565;28;20440;-41
2022/10/28 01:42:41;;;;;;;28.30;13.80;;;;;;;13.67;100.00;101582.97;5048454;28;20035;-41
2022/10/28 01:45:30;;;;;;;31.83;13.52;;;;;;;13.64;100.00;101585.19;5033666;28;20617;-40
2022/10/28 01:48:01;;;;;;;31.45;13.38;;;;;;;13.61;100.00;101589.97;5030028;28;20029;-42
2022/10/28 01:50:32;;;;;;;34.75;13.73;;;;;;;13.60;100.00;101582.00;5030733;28;20057;-41
2022/10/28 01:53:00;;;;;;;30.73;13.35;;;;;;;13.58;100.00;101575.94;5029916;28;20036;-42
2022/10/28 01:55:30;;;;;;;31.95;13.32;;;;;;;13.52;100.00;101582.94;5056426;28;20102;-41
2022/10/28 01:57:58;;;;;;;32.72;13.57;;;;;;;13.49;100.00;101571.66;5046854;28;20033;-41
2022/10/28 02:00:23;;;;;;;40.20;13.15;;;;;;;13.50;100.00;101565.19;5046438;28;20051;-41
2022/10/28 02:02:49;;;;;;;27.10;12.80;;;;;;;13.48;100.00;101572.66;5049522;28;20364;-41
2022/10/28 02:08:21;;;;;;;31.27;12.50;;;;;;;13.46;100.00;101572.84;5057628;22;20057;-37
2022/10/28 02:11:19;;;;;;;37.08;13.98;;;;;;;13.44;100.00;101571.34;5029324;28;20048;-37
2022/10/28 02:13:53;;;;;;;;;;;;;;;13.41;100.00;101564.44;4979241;28;20125;-36
2022/10/28 02:16:26;;;;;;;31.73;12.85;;;;;;;13.41;100.00;101566.31;5024321;28;20291;-36
2022/10/28 02:19:14;;;;;;;37.00;13.82;;;;;;;13.38;100.00;101562.13;5030085;28;20025;-36
2022/10/28 02:22:18;;;;;;;30.65;13.55;;;;;;;13.36;100.00;101559.56;5034425;28;20041;-37
2022/10/28 02:24:54;;;;;;;24.83;12.40;;;;;;;13.36;100.00;101558.75;5034561;28;20052;-38
2022/10/28 02:27:27;;;;;;;32.20;13.75;;;;;;;13.33;100.00;101557.25;5033493;28;20034;-36
2022/10/28 02:29:59;;;;;;;26.50;12.50;;;;;;;13.32;100.00;101558.28;5033949;28;20029;-37
2022/10/28 02:32:27;;;;;;;35.83;13.52;;;;;;;13.31;100.00;101559.28;5032566;28;20037;-36
2022/10/28 02:34:54;;;;;;;;;;;;;;;13.28;100.00;101554.25;5033178;28;20036;-37
2022/10/28 02:37:26;;;;;;;32.08;13.38;;;;;;;13.26;100.00;101560.81;5032842;28;20000;-36
2022/10/28 02:39:55;;;;;;;33.13;13.45;;;;;;;13.26;100.00;101567.09;5032561;28;20032;-36
2022/10/28 02:42:24;;;;;;;27.23;13.38;;;;;;;13.26;100.00;101568.94;5033498;28;20115;-36
2022/10/28 02:45:05;;;;;;;30.90;13.00;;;;;;;13.24;100.00;101552.06;5033968;28;20044;-36
2022/10/28 02:47:33;;;;;;;33.45;14.02;;;;;;;13.30;100.00;101548.69;5034347;28;20038;-36
2022/10/28 02:50:00;;;;;;;26.05;13.32;;;;;;;13.29;100.00;101545.09;5032702;28;20116;-37
2022/10/28 02:52:27;;;;;;;;;;;;;;;13.27;100.00;101544.47;5034487;28;20041;-37
2022/10/28 02:54:54;;;;;;;37.55;14.30;;;;;;;13.26;100.00;101539.19;5033837;28;20319;-38
2022/10/28 02:57:23;;;;;;;37.95;14.00;;;;;;;13.28;100.00;101539.91;5034281;28;20048;-38
2022/10/28 02:59:56;;;;;;;35.88;14.13;;;;;;;13.26;100.00;101542.78;5032578;28;20491;-37
2022/10/28 03:02:22;;;;;;;35.97;13.48;;;;;;;13.27;100.00;101538.19;5032690;28;20033;-36
2022/10/28 03:04:47;;;;;;;30.90;13.40;;;;;;;13.25;100.00;101535.66;5032075;28;20079;-37
2022/10/28 03:07:13;;;;;;;39.17;14.90;;;;;;;13.23;100.00;101539.56;5033402;28;20068;-36
2022/10/28 03:09:38;;;;;;;41.67;14.38;;;;;;;13.18;100.00;101532.00;5033716;28;20029;-35
2022/10/28 03:12:04;;;;;;;37.67;14.15;;;;;;;13.15;100.00;101537.78;5032472;28;20521;-36
2022/10/28 03:14:29;;;;;;;35.20;14.00;;;;;;;13.15;100.00;101540.47;5033681;28;20511;-36
2022/10/28 03:16:54;;;;;;;42.53;14.82;;;;;;;13.15;100.00;101549.41;5033436;28;20447;-37
2022/10/28 03:19:20;;;;;;;32.63;14.38;;;;;;;13.13;100.00;101542.53;5033530;28;20645;-36
2022/10/28 03:21:45;;;;;;;28.67;13.52;;;;;;;13.10;100.00;101540.19;5033588;28;20107;-36
2022/10/28 03:24:10;;;;;;;33.15;14.25;;;;;;;13.05;100.00;101534.47;5032211;28;20507;-36
2022/10/28 03:26:36;;;;;;;27.77;13.50;;;;;;;13.01;100.00;101530.47;5033206;28;20484;-36
2022/10/28 03:29:01;;;;;;;40.33;14.70;;;;;;;13.05;100.00;101532.63;5033190;28;20037;-36
2022/10/28 03:31:26;;;;;;;37.90;14.77;;;;;;;13.06;100.00;101539.72;5032349;28;20064;-37
2022/10/28 03:33:52;;;;;;;34.55;14.85;;;;;;;13.01;100.00;101539.41;5032588;28;20472;-37
2022/10/28 03:36:17;;;;;;;33.53;13.85;;;;;;;13.00;100.00;101539.59;5031758;28;20037;-36
2022/10/28 03:38:42;;;;;;;34.95;13.68;;;;;;;13.02;100.00;101534.84;5032205;28;20026;-36
2022/10/28 03:41:08;;;;;;;33.67;14.10;;;;;;;13.03;100.00;101539.22;5032596;28;20097;-36
2022/10/28 03:43:33;;;;;;;37.38;14.07;;;;;;;13.00;100.00;101536.88;5015390;28;20076;-36
2022/10/28 03:45:58;;;;;;;39.00;14.27;;;;;;;13.00;100.00;101540.41;5032961;28;20116;-36
2022/10/28 03:48:24;;;;;;;33.55;14.10;;;;;;;12.99;100.00;101532.50;5033570;28;20065;-36
2022/10/28 03:50:53;;;;;;;42.53;14.70;;;;;;;12.98;100.00;101541.63;5033124;28;20057;-36
2022/10/28 03:53:19;;;;;;;32.95;13.95;;;;;;;13.01;100.00;101525.06;5031464;28;20033;-37
2022/10/28 03:55:51;;;;;;;31.15;14.02;;;;;;;13.01;100.00;101516.97;5031514;28;20116;-37
2022/10/28 03:58:16;;;;;;;40.90;14.23;;;;;;;13.01;100.00;101514.25;5031794;28;20041;-36
2022/10/28 04:00:42;;;;;;;40.10;13.73;;;;;;;13.03;100.00;101514.91;5031023;28;20037;-36
2022/10/28 04:03:07;;;;;;;36.20;13.55;;;;;;;13.05;100.00;101520.97;5032714;28;20030;-36
2022/10/28 04:05:32;;;;;;;39.72;14.05;;;;;;;13.04;100.00;101522.00;5032662;28;20033;-36
2022/10/28 04:07:58;;;;;;;30.13;13.52;;;;;;;13.08;100.00;101520.59;5031245;28;20180;-36
2022/10/28 04:10:23;;;;;;;30.92;13.23;;;;;;;13.09;100.00;101519.59;5032758;28;20022;-36
2022/10/28 04:12:48;;;;;;;38.42;13.05;;;;;;;13.10;100.00;101526.66;5032651;28;20396;-36
2022/10/28 04:15:14;;;;;;;33.10;13.10;;;;;;;13.15;100.00;101525.09;5032752;28;20028;-36
2022/10/28 04:17:39;;;;;;;42.22;13.05;;;;;;;13.14;100.00;101519.91;5032644;28;20022;-37
2022/10/28 04:20:05;;;;;;;30.38;12.07;;;;;;;13.18;100.00;101515.78;5032579;28;20358;-36
2022/10/28 04:22:30;;;;;;;38.30;13.05;;;;;;;13.13;100.00;101512.78;5030562;28;20684;-36
2022/10/28 04:24:56;;;;;;;31.20;13.25;;;;;;;13.05;100.00;101512.88;5032147;28;20030;-36
2022/10/28 04:27:21;;;;;;;38.33;13.00;;;;;;;13.03;100.00;101512.19;5031965;28;20021;-36
2022/10/28 04:29:46;;;;;;;27.77;13.05;;;;;;;12.98;100.00;101503.78;5029752;28;20057;-36
2022/10/28 04:32:12;;;;;;;40.65;13.63;;;;;;;12.95;100.00;101511.25;5032361;28;20029;-36
2022/10/28 04:34:37;;;;;;;32.78;13.68;;;;;;;12.94;100.00;101503.31;5031802;28;20108;-37
2022/10/28 04:37:02;;;;;;;42.42;14.73;;;;;;;12.90;100.00;101518.19;5031330;28;20116;-37
2022/10/28 04:39:28;;;;;;;39.35;13.57;;;;;;;12.89;100.00;101517.38;5031822;28;20045;-37
2022/10/28 04:41:53;;;;;;;40.22;13.35;;;;;;;12.87;100.00;101535.63;5031866;28;20048;-37
2022/10/28 04:44:18;;;;;;;32.95;12.55;;;;;;;12.85;100.00;101529.56;5029711;28;20095;-37
2022/10/28 04:46:44;;;;;;;32.92;13.10;;;;;;;12.82;100.00;101521.84;5031282;28;20108;-37
2022/10/28 04:49:09;;;;;;;39.63;12.20;;;;;;;12.81;100.00;101522.00;5029918;28;20056;-36
2022/10/28 04:51:34;;;;;;;32.72;13.95;;;;;;;12.81;100.00;101517.44;5031158;28;20049;-37
2022/10/28 04:54:00;;;;;;;31.52;13.93;;;;;;;12.81;100.00;101520.13;5025393;28;20042;-37
2022/10/28 04:56:25;;;;;;;28.55;12.85;;;;;;;12.84;100.00;101514.38;5019539;28;20109;-37
2022/10/28 04:58:50;;;;;;;40.08;12.65;;;;;;;12.85;100.00;101505.25;5012097;28;20034;-37
2022/10/28 05:01:16;;;;;;;33.70;12.88;;;;;;;12.90;100.00;101508.25;5030099;28;20037;-37
2022/10/28 05:03:41;;;;;;;33.25;11.98;;;;;;;12.89;100.00;101498.47;5031360;28;20104;-38
2022/10/28 05:06:06;;;;;;;27.58;12.23;;;;;;;12.86;100.00;101500.69;5031184;28;20061;-37
2022/10/28 05:08:32;;;;;;;42.90;14.63;;;;;;;12.84;100.00;101505.44;5030026;28;20101;-36
2022/10/28 05:10:57;;;;;;;37.55;13.50;;;;;;;12.82;100.00;101511.03;5030674;28;20321;-39
2022/10/28 05:13:22;;;;;;;35.13;13.23;;;;;;;12.81;100.00;101506.63;5023981;28;20448;-38
2022/10/28 05:15:48;;;;;;;40.42;13.60;;;;;;;12.83;100.00;101511.88;5023964;28;20458;-38
2022/10/28 05:18:13;;;;;;;28.67;11.93;;;;;;;12.82;100.00;101519.13;5027467;28;20449;-38
2022/10/28 05:20:39;;;;;;;35.88;12.32;;;;;;;12.81;100.00;101514.72;5024218;28;20572;-38
2022/10/28 05:23:04;;;;;;;35.60;12.45;;;;;;;12.83;100.00;101518.09;5028282;28;20083;-37
2022/10/28 05:25:29;;;;;;;29.42;12.85;;;;;;;12.85;100.00;101516.06;5028624;28;20079;-38
2022/10/28 05:27:59;;;;;;;34.03;12.55;;;;;;;12.83;100.00;101517.28;5008647;28;20040;-37
2022/10/28 05:30:24;;;;;;;37.92;12.95;;;;;;;12.81;100.00;101522.84;5029870;28;20032;-37
2022/10/28 05:32:50;;;;;;;42.10;13.35;;;;;;;12.79;100.00;101516.75;5029244;28;20033;-37
2022/10/28 05:35:15;;;;;;;32.90;12.18;;;;;;;12.79;100.00;101516.75;5030542;28;20040;-38
2022/10/28 05:37:42;;;;;;;39.17;13.15;;;;;;;12.82;100.00;101515.56;5025375;28;20739;-37
2022/10/28 05:40:08;;;;;;;35.30;13.68;;;;;;;12.87;100.00;101507.75;5030127;28;20034;-37
2022/10/28 05:42:39;;;;;;;43.78;12.85;;;;;;;12.90;100.00;101497.47;5030117;28;20429;-37
2022/10/28 05:45:05;;;;;;;37.72;11.95;;;;;;;12.99;100.00;101494.69;5030142;28;20425;-37
2022/10/28 05:47:31;;;;;;;32.03;12.75;;;;;;;13.06;100.00;101495.63;5020347;28;20029;-37
2022/10/28 05:49:57;;;;;;;35.53;12.07;;;;;;;13.09;100.00;101500.69;5020953;28;20030;-37
2022/10/28 05:52:22;;;;;;;36.42;11.13;;;;;;;13.16;100.00;101502.47;5024862;28;20102;-37
2022/10/28 05:54:47;;;;;;;32.40;12.15;;;;;;;13.26;100.00;101496.81;5022672;28;20105;-38
2022/10/28 05:57:13;;;;;;;37.13;13.07;;;;;;;13.30;100.00;101500.84;5030624;28;20126;-36
2022/10/28 05:59:38;;;;;;;37.42;10.90;;;;;;;13.38;100.00;101483.72;5030270;28;20044;-36
2022/10/28 06:02:03;;;;;;;31.00;11.52;;;;;;;13.44;100.00;101492.94;5028421;28;20038;-36
2022/10/28 06:04:29;;;;;;;35.00;11.05;;;;;;;13.48;100.00;101489.69;5028616;28;20100;-36
2022/10/28 06:06:55;;;;;;;37.03;10.88;;;;;;;13.57;100.00;101488.56;5029192;28;20541;-36
2022/10/28 06:09:20;;;;;;;42.90;11.48;;;;;;;13.61;100.00;101489.88;5029475;28;20327;-36
2022/10/28 06:11:47;;;;;;;43.58;12.77;;;;;;;13.63;100.00;101495.09;5029036;28;20029;-37
2022/10/28 06:14:12;;;;;;;29.23;10.95;;;;;;;13.59;100.00;101488.38;5029245;28;20027;-38
2022/10/28 06:16:38;;;;;;;33.20;10.93;;;;;;;13.59;100.00;101485.69;5026782;28;20025;-37
2022/10/28 06:19:03;;;;;;;42.95;11.68;;;;;;;13.57;100.00;101485.03;5028162;28;20037;-35
2022/10/28 06:21:28;;;;;;;45.90;12.85;;;;;;;13.56;100.00;101486.03;5030114;28;20341;-35
2022/10/28 06:23:54;;;;;;;40.85;11.13;;;;;;;13.56;100.00;101486.03;5029393;28;20052;-36
2022/10/28 06:26:19;;;;;;;38.05;11.73;;;;;;;13.56;100.00;101481.47;5027825;28;20074;-35
2022/10/28 06:28:47;;;;;;;43.17;10.80;;;;;;;13.55;100.00;101478.94;5025054;28;20049;-35
2022/10/28 06:31:13;;;;;;;38.30;11.35;;;;;;;13.49;100.00;101471.59;5030090;28;20043;-35
2022/10/28 06:33:38;;;;;;;51.42;12.15;;;;;;;13.43;100.00;101475.03;5028657;28;20564;-38
2022/10/28 06:36:04;;;;;;;33.13;11.07;;;;;;;13.43;100.00;101485.84;5030047;28;20033;-36
2022/10/28 06:38:30;;;;;;;33.08;11.88;;;;;;;13.42;100.00;101478.75;5018747;28;20029;-37
2022/10/28 06:40:58;;;;;;;38.53;11.43;;;;;;;13.41;100.00;101485.19;5020778;28;20033;-35
2022/10/28 06:43:24;;;;;;;37.13;12.27;;;;;;;13.41;100.00;101482.50;5018393;28;20088;-38
2022/10/28 06:45:54;;;;;;;51.90;12.40;;;;;;;13.41;100.00;101487.91;5018500;28;20026;-36
2022/10/28 06:48:19;;;;;;;40.65;11.80;;;;;;;13.44;100.00;101492.94;5020704;28;20393;-36
2022/10/28 06:50:45;;;;;;;43.90;14.48;;;;;;;13.47;100.00;101497.97;5019864;28;20128;-37
2022/10/28 06:53:10;;;;;;;33.17;12.15;;;;;;;13.49;100.00;101490.53;5018500;28;20052;-37
2022/10/28 06:55:35;;;;;;;41.95;13.20;;;;;;;13.52;100.00;101495.56;5021097;28;20060;-37
2022/10/28 06:58:01;;;;;;;32.38;11.70;;;;;;;13.54;100.00;101498.91;5021315;28;20053;-37
2022/10/28 07:00:28;;;;;;;38.95;13.02;;;;;;;13.54;100.00;101498.91;5017962;28;20029;-37
2022/10/28 07:02:54;;;;;;;40.10;12.05;;;;;;;13.56;100.00;101507.66;5018739;28;20492;-38
2022/10/28 07:05:20;;;;;;;31.73;12.07;;;;;;;13.65;100.00;101506.56;5018494;28;20025;-37
2022/10/28 07:07:46;;;;;;;39.00;13.48;;;;;;;13.75;100.00;101503.59;5019317;28;20050;-36
2022/10/28 07:10:11;;;;;;;39.80;12.32;;;;;;;13.84;100.00;101511.41;5023744;28;20048;-36
2022/10/28 07:12:36;;;;;;;31.08;11.13;;;;;;;13.92;100.00;101515.88;5022080;28;20021;-37
2022/10/28 07:15:03;;;;;;;37.42;11.68;;;;;;;14.03;100.00;101511.84;5022949;28;20025;-37
2022/10/28 07:17:29;;;;;;;34.53;11.13;;;;;;;14.07;100.00;101499.66;5022099;28;20030;-37
2022/10/28 07:19:54;;;;;;;32.30;11.23;;;;;;;14.15;100.00;101504.94;5021622;28;20036;-37
2022/10/28 07:22:19;;;;;;;35.88;11.48;;;;;;;14.21;100.00;101506.88;5023861;28;20108;-37
2022/10/28 07:24:45;;;;;;;29.77;10.50;;;;;;;14.28;100.00;101504.28;5023744;28;20037;-36
2022/10/28 07:27:10;;;;;;;44.22;13.60;;;;;;;14.32;100.00;101507.44;5022810;28;20084;-36
2022/10/28 07:29:35;;;;;;;28.80;10.88;;;;;;;14.36;100.00;101509.56;5022576;28;20026;-37
2022/10/28 07:32:01;;;;;;;36.40;11.68;;;;;;;14.48;100.00;101508.06;5022638;28;20396;-36
2022/10/28 07:34:26;;;;;;;32.78;10.27;;;;;;;14.60;100.00;101513.81;5021647;28;20384;-37
2022/10/28 07:36:52;;;;;;;25.95;10.00;;;;;;;14.66;100.00;101504.91;5024287;28;20028;-38
2022/10/28 07:39:18;;;;;;;35.53;9.93;;;;;;;14.71;100.00;101513.31;5024209;28;20030;-38
2022/10/28 07:41:44;;;;;;;36.75;9.70;;;;;;;14.77;100.00;101511.72;5023260;28;20497;-35
2022/10/28 07:44:09;;;;;;;30.85;10.52;;;;;;;14.83;100.00;101518.25;5020572;28;20461;-36
2022/10/28 07:46:35;;;;;;;30.63;10.38;;;;;;;14.85;100.00;101514.31;5020298;28;20025;-37
2022/10/28 07:49:00;;;;;;;39.38;9.52;;;;;;;14.94;100.00;101520.41;5020604;28;20437;-37
2022/10/28 07:51:26;;;;;;;30.42;10.02;;;;;;;14.97;100.00;101516.50;5022743;28;20148;-36
2022/10/28 07:53:51;;;;;;;31.17;10.07;;;;;;;15.08;100.00;101513.25;5022621;28;20103;-36
2022/10/28 07:56:16;;;;;;;28.30;9.48;;;;;;;15.19;100.00;101509.16;5018602;28;20477;-35
2022/10/28 07:58:43;;;;;;;25.75;8.23;;;;;;;15.23;100.00;101505.88;5013700;28;20030;-36
2022/10/28 08:01:09;;;;;;;25.92;8.85;;;;;;;15.33;100.00;101502.81;5012061;28;20021;-36
2022/10/28 08:03:35;;;;;;;37.03;9.38;;;;;;;15.41;100.00;101499.97;5011841;28;20053;-37
2022/10/28 08:06:09;;;;;;;29.75;8.70;;;;;;;15.53;100.00;101497.53;5013201;28;20296;-36
2022/10/28 08:08:35;;;;;;;22.42;7.90;;;;;;;15.60;100.00;101501.13;5013374;28;20168;-35
2022/10/28 08:11:15;;;;;;;32.40;9.07;;;;;;;15.76;100.00;101494.56;5015551;28;20436;-36
2022/10/28 08:13:40;;;;;;;35.67;8.95;;;;;;;16.10;100.00;101498.28;5023167;28;20034;-36
2022/10/28 08:16:06;;;;;;;25.33;8.00;;;;;;;16.62;100.00;101485.91;5020449;28;20021;-35
2022/10/28 08:18:32;;;;;;;30.33;7.47;;;;;;;16.95;100.00;101482.41;5020894;28;20025;-35
2022/10/28 08:20:59;;;;;;;31.65;7.50;;;;;;;17.00;100.00;101480.75;5022232;28;20087;-35
2022/10/28 08:23:24;;;;;;;26.38;6.57;;;;;;;17.05;100.00;101485.56;5019847;28;20453;-36
2022/10/28 08:25:51;;;;;;;24.95;6.72;;;;;;;17.17;100.00;101491.19;5022956;28;20025;-36
2022/10/28 08:28:16;;;;;;;27.70;6.85;;;;;;;17.10;100.00;101483.06;5022121;28;20096;-36
2022/10/28 08:30:42;;;;;;;25.30;5.97;;;;;;;17.19;99.85;101489.94;5024022;28;20537;-36
2022/10/28 08:33:07;;;;;;;28.70;6.80;;;;;;;17.14;99.19;101481.59;5021398;28;20409;-36
2022/10/28 08:35:34;;;;;;;21.13;5.95;;;;;;;17.11;99.11;101484.72;5022491;28;20068;-36
2022/10/28 08:37:59;;;;;;;21.05;5.60;;;;;;;17.09;99.09;101484.09;5021448;28;20045;-35
2022/10/28 08:40:51;;;;;;;25.83;5.88;;;;;;;17.05;99.90;101489.09;5022823;28;20037;-36
2022/10/28 08:43:27;;;;;;;21.00;6.40;;;;;;;17.03;100.00;101482.19;5004990;28;20100;-37
2022/10/28 08:45:54;;;;;;;28.70;6.75;;;;;;;17.00;100.00;101485.34;5019952;28;20447;-36
2022/10/28 08:48:32;;;;;;;21.65;6.13;;;;;;;17.01;99.91;101490.59;5022636;28;20055;-36
2022/10/28 08:51:19;;;;;;;29.25;6.15;;;;;;;17.00;99.89;101486.19;5019026;28;20044;-36
2022/10/28 08:53:54;;;;;;;21.17;6.10;;;;;;;17.03;99.94;101474.88;5022132;28;20045;-37
2022/10/28 08:56:57;;;;;;;33.22;6.70;;;;;;;17.16;99.66;101468.59;5019944;28;20041;-37
2022/10/28 08:59:32;;;;;;;25.92;6.32;;;;;;;17.29;98.38;101478.63;4953532;28;20090;-37
2022/10/28 09:02:20;;;;;;;29.65;5.97;;;;;;;17.39;97.96;101478.22;5010151;28;20064;-37
2022/10/28 09:04:45;;;;;;;16.08;5.38;;;;;;;17.62;97.75;101475.88;5021248;28;20029;-37
2022/10/28 09:07:20;;;;;;;23.48;6.28;;;;;;;17.82;95.50;101477.72;5001719;28;20062;-37
2022/10/28 09:09:46;;;;;;;22.90;6.20;;;;;;;18.04;94.27;101472.84;5022674;28;20033;-36
2022/10/28 09:12:26;;;;;;;23.27;5.90;;;;;;;18.19;93.75;101478.81;5010854;28;20595;-37
2022/10/28 09:15:29;;;;;;;29.33;5.80;;;;;;;18.37;91.66;101475.38;5031086;28;20462;-37
2022/10/28 09:18:19;;;;;;;24.52;6.05;;;;;;;18.53;91.15;101491.22;5030943;28;20558;-37
2022/10/28 09:20:53;;;;;;;20.77;5.30;;;;;;;18.56;90.94;101482.63;5021334;28;20477;-38
2022/10/28 09:23:23;;;;;;;21.92;6.20;;;;;;;18.67;89.73;101485.69;5025846;28;20026;-37
2022/10/28 09:26:06;;;;;;;26.05;6.15;;;;;;;18.68;89.55;101485.47;5008812;28;20453;-37
2022/10/28 09:29:29;;;;;;;36.00;6.40;;;;;;;18.83;88.46;101482.47;5028874;28;20175;-38
2022/10/28 09:32:03;;;;;;;23.17;5.53;;;;;;;18.93;88.23;101474.63;4988309;28;20034;-37
2022/10/28 09:34:48;;;;;;;19.13;5.47;;;;;;;19.03;88.52;101479.56;4985507;28;20505;-38
2022/10/28 09:37:16;;;;;;;24.42;5.78;;;;;;;19.00;87.16;101474.56;5004083;28;20037;-36
2022/10/28 09:39:52;;;;;;;23.17;5.03;;;;;;;19.41;86.27;101470.44;5028609;28;20029;-36
2022/10/28 09:42:22;;;;;;;26.70;5.38;;;;;;;19.39;85.83;101470.63;5029151;28;20512;-36
2022/10/28 09:45:02;;;;;;;24.85;6.50;;;;;;;19.31;86.04;101476.41;5025473;28;20053;-36
2022/10/28 09:47:31;;;;;;;22.48;5.75;;;;;;;19.34;85.89;101475.94;5028132;28;20030;-36
2022/10/28 09:50:00;;;;;;;25.88;6.22;;;;;;;19.33;85.15;101473.44;5030123;28;20026;-36
2022/10/28 09:52:30;;;;;;;17.25;5.80;;;;;;;19.45;85.76;101455.25;5028761;28;20396;-36
2022/10/28 09:54:57;;;;;;;21.80;5.53;;;;;;;19.62;85.57;101455.50;5029146;28;20071;-36
2022/10/28 09:57:28;;;;;;;26.73;5.90;;;;;;;19.73;84.24;101446.59;5028861;28;20112;-36
2022/10/28 09:59:54;;;;;;;18.38;5.93;;;;;;;19.86;83.61;101445.59;5030355;28;20087;-36
2022/10/28 10:02:30;;;;;;;18.58;5.05;;;;;;;19.78;84.07;101441.28;5029986;28;20030;-36
2022/10/28 10:04:56;;;;;;;27.05;5.70;;;;;;;20.03;83.05;101451.25;5029122;28;20033;-37
2022/10/28 10:07:29;;;;;;;19.15;4.78;;;;;;;19.95;83.24;101455.97;5029663;28;20041;-36
2022/10/28 10:09:55;;;;;;;29.58;5.88;;;;;;;19.86;83.57;101487.41;5029805;28;20069;-37
2022/10/28 10:12:20;;;;;;;23.25;5.15;;;;;;;19.76;83.07;101473.44;5028597;28;20037;-36
2022/10/28 10:14:49;;;;;;;26.63;5.70;;;;;;;19.62;83.09;101471.91;5028468;28;20032;-36
2022/10/28 10:17:18;;;;;;;18.60;5.07;;;;;;;19.58;83.33;101465.19;5029281;28;20112;-36
2022/10/28 10:20:04;;;;;;;29.42;5.45;;;;;;;19.63;83.48;101481.75;5028561;28;20079;-36
2022/10/28 10:22:31;;;;;;;26.83;5.78;;;;;;;19.53;84.34;101477.63;5030182;28;20112;-36
2022/10/28 10:24:57;;;;;;;;;;;;;;;19.56;84.86;101478.25;5030484;28;20029;-36
2022/10/28 10:27:24;;;;;;;28.42;6.47;;;;;;;19.61;85.09;101481.13;5011507;28;19924;-36
2022/10/28 10:29:51;;;;;;;23.13;5.88;;;;;;;19.60;84.61;101474.84;5029629;28;20072;-37
2022/10/28 10:32:19;;;;;;;29.15;6.40;;;;;;;19.58;84.20;101465.19;5028398;28;20037;-37
2022/10/28 10:34:49;;;;;;;33.22;6.57;;;;;;;19.50;84.08;101479.97;5029613;28;20433;-36
2022/10/28 10:37:20;;;;;;;24.65;5.20;;;;;;;19.55;84.15;101493.78;5027439;28;20029;-35
2022/10/28 10:39:58;;;;;;;38.92;6.20;;;;;;;19.53;84.49;101480.34;5011394;28;20036;-36
2022/10/28 10:42:24;;;;;;;22.80;5.47;;;;;;;19.45;83.56;101504.38;5031174;28;20154;-37
2022/10/28 10:44:59;;;;;;;24.60;5.57;;;;;;;19.37;84.09;101497.31;5033525;28;20175;-37
2022/10/28 10:47:25;;;;;;;25.40;5.43;;;;;;;19.35;84.16;101499.44;5033079;28;20058;-36
2022/10/28 10:49:51;;;;;;;21.90;4.80;;;;;;;19.40;84.53;101496.88;5033405;28;20026;-36
2022/10/28 10:52:22;;;;;;;37.00;5.68;;;;;;;19.39;84.38;101489.75;5033389;28;20151;-36
2022/10/28 10:55:00;;;;;;;23.48;5.78;;;;;;;19.35;84.19;101474.88;5032323;28;20542;-37
2022/10/28 10:57:25;;;;;;;33.53;6.82;;;;;;;19.29;84.17;101468.41;5031664;28;20286;-37
2022/10/28 10:59:53;;;;;;;26.13;5.20;;;;;;;19.24;85.10;101483.81;5015212;28;20360;-37
2022/10/28 11:02:22;;;;;;;27.70;5.93;;;;;;;19.27;85.08;101497.00;5015127;28;20061;-38
2022/10/28 11:04:54;;;;;;;28.52;6.03;;;;;;;19.30;84.54;101507.47;5032134;28;20033;-36
2022/10/28 11:07:19;;;;;;;22.77;6.05;;;;;;;19.20;84.72;101512.59;5032795;28;20053;-36
2022/10/28 11:09:48;;;;;;;20.38;5.93;;;;;;;19.28;85.19;101515.06;5033025;28;20455;-36
2022/10/28 11:12:34;;;;;;;34.50;6.03;;;;;;;19.32;84.69;101508.06;5031653;28;20018;-35
2022/10/28 11:15:02;;;;;;;22.02;5.90;;;;;;;19.29;85.40;101513.97;5031566;28;20112;-36
2022/10/28 11:17:28;;;;;;;;;;;;;;;19.29;84.80;101517.53;5031870;28;20499;-35
2022/10/28 11:19:55;;;;;;;21.30;6.18;;;;;;;19.27;85.67;101522.41;5033297;28;20016;-36